sensor_id;sensor_type;location;lat;lon;timestamp;temperature;humidity
19728;DHT22;10015;52.530;13.390;2022-09-17T05:30:40;14.70;99.90
19728;DHT22;10015;52.530;13.390;2022-09-17T05:33:08;14.70;99.90
19728;DHT22;10015;52.530;13.390;2022-09-17T05:35:34;14.70;99.90
19728;DHT22;10015;52.530;13.390;2022-09-17T05:38:04;14.70;99.90
19728;DHT22;10015;52.530;13.390;2022-09-17T05:40:32;14.60;99.90
19728;DHT22;10015;52.530;13.390;2022-09-17T05:43:00;14.70;99.90
19728;DHT22;10015;52.530;13.390;2022-09-17T05:45:29;14.70;99.90
19728;DHT22;10015;52.530;13.390;2022-09-17T05:47:59;14.80;99.90
19728;DHT22;10015;52.530;13.390;2022-09-17T05:50:27;14.80;99.90
19728;DHT22;10015;52.530;13.390;2022-09-17T05:52:53;14.80;99.90
19728;DHT22;10015;52.530;13.390;2022-09-17T05:55:21;14.80;99.90
19728;DHT22;10015;52.530;13.390;2022-09-17T05:57:52;14.70;99.90
19728;DHT22;10015;52.530;13.390;2022-09-17T06:00:18;14.70;99.90
19728;DHT22;10015;52.530;13.390;2022-09-17T06:02:44;14.70;99.90
19728;DHT22;10015;52.530;13.390;2022-09-17T06:05:10;14.80;99.90
19728;DHT22;10015;52.530;13.390;2022-09-17T06:07:37;14.80;99.90
19728;DHT22;10015;52.530;13.390;2022-09-17T06:10:04;14.80;99.90
19728;DHT22;10015;52.530;13.390;2022-09-17T06:12:30;14.80;99.90
19728;DHT22;10015;52.530;13.390;2022-09-17T06:14:56;14.80;99.90
19728;DHT22;10015;52.530;13.390;2022-09-17T06:17:22;14.70;99.90
19728;DHT22;10015;52.530;13.390;2022-09-17T06:19:48;14.70;99.90
19728;DHT22;10015;52.530;13.390;2022-09-17T06:22:19;14.80;99.90
19728;DHT22;10015;52.530;13.390;2022-09-17T06:24:48;14.90;99.90
19728;DHT22;10015;52.530;13.390;2022-09-17T06:27:14;14.90;99.90
19728;DHT22;10015;52.530;13.390;2022-09-17T06:29:40;14.80;99.90
19728;DHT22;10015;52.530;13.390;2022-09-17T06:32:07;14.80;99.90
19728;DHT22;10015;52.530;13.390;2022-09-17T06:34:36;14.80;99.90
19728;DHT22;10015;52.530;13.390;2022-09-17T06:37:02;14.90;99.90
19728;DHT22;10015;52.530;13.390;2022-09-17T06:39:28;14.90;99.90
19728;DHT22;10015;52.530;13.390;2022-09-17T06:41:53;14.90;99.90
19728;DHT22;10015;52.530;13.390;2022-09-17T06:44:20;14.80;99.90
19728;DHT22;10015;52.530;13.390;2022-09-17T06:46:48;14.90;99.90
19728;DHT22;10015;52.530;13.390;2022-09-17T06:49:16;14.90;99.90
19728;DHT22;10015;52.530;13.390;2022-09-17T06:51:43;14.90;99.90
19728;DHT22;10015;52.530;13.390;2022-09-17T06:54:09;14.90;99.90
19728;DHT22;10015;52.530;13.390;2022-09-17T06:56:35;14.90;99.90
19728;DHT22;10015;52.530;13.390;2022-09-17T06:59:02;15.00;99.90
19728;DHT22;10015;52.530;13.390;2022-09-17T07:01:28;15.00;99.90
19728;DHT22;10015;52.530;13.390;2022-09-17T07:03:54;14.90;99.90
19728;DHT22;10015;52.530;13.390;2022-09-17T07:06:20;14.90;99.90
19728;DHT22;10015;52.530;13.390;2022-09-17T07:08:46;14.80;99.90
19728;DHT22;10015;52.530;13.390;2022-09-17T07:11:13;14.70;99.90
19728;DHT22;10015;52.530;13.390;2022-09-17T07:13:40;14.60;99.90
19728;DHT22;10015;52.530;13.390;2022-09-17T07:16:06;14.60;99.90
19728;DHT22;10015;52.530;13.390;2022-09-17T07:18:33;14.70;99.90
19728;DHT22;10015;52.530;13.390;2022-09-17T07:21:00;14.70;99.90
19728;DHT22;10015;52.530;13.390;2022-09-17T07:23:29;14.70;99.90
19728;DHT22;10015;52.530;13.390;2022-09-17T07:25:57;14.80;99.90
19728;DHT22;10015;52.530;13.390;2022-09-17T07:28:24;14.90;99.90
19728;DHT22;10015;52.530;13.390;2022-09-17T07:30:51;15.00;99.90
19728;DHT22;10015;52.530;13.390;2022-09-17T07:33:19;15.10;99.90
19728;DHT22;10015;52.530;13.390;2022-09-17T07:35:55;15.10;99.90
19728;DHT22;10015;52.530;13.390;2022-09-17T07:38:22;15.20;99.90
19728;DHT22;10015;52.530;13.390;2022-09-17T07:41:06;15.20;99.90
19728;DHT22;10015;52.530;13.390;2022-09-17T07:43:33;15.10;99.90
19728;DHT22;10015;52.530;13.390;2022-09-17T07:46:02;14.90;99.90
19728;DHT22;10015;52.530;13.390;2022-09-17T07:48:30;14.80;99.90
19728;DHT22;10015;52.530;13.390;2022-09-17T07:50:56;14.80;99.90
19728;DHT22;10015;52.530;13.390;2022-09-17T07:53:23;14.90;99.90
19728;DHT22;10015;52.530;13.390;2022-09-17T07:55:57;14.90;99.90
19728;DHT22;10015;52.530;13.390;2022-09-17T07:58:31;15.00;99.90
19728;DHT22;10015;52.530;13.390;2022-09-17T08:01:07;15.00;99.90
19728;DHT22;10015;52.530;13.390;2022-09-17T08:03:35;15.00;99.90
19728;DHT22;10015;52.530;13.390;2022-09-17T08:08:30;14.90;99.90
19728;DHT22;10015;52.530;13.390;2022-09-17T08:11:05;15.00;99.90
19728;DHT22;10015;52.530;13.390;2022-09-17T08:13:31;15.00;99.90
19728;DHT22;10015;52.530;13.390;2022-09-17T08:15:59;15.00;99.90
19728;DHT22;10015;52.530;13.390;2022-09-17T08:18:26;15.00;99.90
19728;DHT22;10015;52.530;13.390;2022-09-17T08:20:56;15.00;99.90
19728;DHT22;10015;52.530;13.390;2022-09-17T08:23:24;15.20;99.90
19728;DHT22;10015;52.530;13.390;2022-09-17T08:25:58;15.20;99.90
19728;DHT22;10015;52.530;13.390;2022-09-17T08:28:27;15.10;99.90
19728;DHT22;10015;52.530;13.390;2022-09-17T08:30:53;15.40;99.90
19728;DHT22;10015;52.530;13.390;2022-09-17T08:33:20;15.90;99.90
19728;DHT22;10015;52.530;13.390;2022-09-17T08:35:53;16.20;99.90
19728;DHT22;10015;52.530;13.390;2022-09-17T08:38:20;16.50;99.90
19728;DHT22;10015;52.530;13.390;2022-09-17T08:43:34;16.90;99.90
19728;DHT22;10015;52.530;13.390;2022-09-17T08:46:01;16.70;99.90
19728;DHT22;10015;52.530;13.390;2022-09-17T08:48:36;16.60;99.90
19728;DHT22;10015;52.530;13.390;2022-09-17T08:54:41;16.90;99.90
19728;DHT22;10015;52.530;13.390;2022-09-17T08:59:59;16.80;99.90
19728;DHT22;10015;52.530;13.390;2022-09-17T09:05:42;17.40;99.90
19728;DHT22;10015;52.530;13.390;2022-09-17T09:09:02;17.60;99.90
19728;DHT22;10015;52.530;13.390;2022-09-17T09:11:04;17.80;99.90
19728;DHT22;10015;52.530;13.390;2022-09-17T09:13:52;17.70;99.90
19728;DHT22;10015;52.530;13.390;2022-09-17T09:16:28;18.10;99.90
19728;DHT22;10015;52.530;13.390;2022-09-17T09:19:18;18.50;99.90
19728;DHT22;10015;52.530;13.390;2022-09-17T09:24:44;19.00;99.90
19728;DHT22;10015;52.530;13.390;2022-09-17T09:27:27;18.90;99.90
19728;DHT22;10015;52.530;13.390;2022-09-17T09:30:27;18.60;99.90
19728;DHT22;10015;52.530;13.390;2022-09-17T09:35:30;18.30;99.90
19728;DHT22;10015;52.530;13.390;2022-09-17T09:38:19;18.00;99.90
19728;DHT22;10015;52.530;13.390;2022-09-17T09:43:51;17.90;99.90
19728;DHT22;10015;52.530;13.390;2022-09-17T09:57:54;16.90;99.90
19728;DHT22;10015;52.530;13.390;2022-09-17T10:00:31;16.70;99.90
19728;DHT22;10015;52.530;13.390;2022-09-17T10:03:08;16.70;99.90
19728;DHT22;10015;52.530;13.390;2022-09-17T10:05:37;16.70;99.90
19728;DHT22;10015;52.530;13.390;2022-09-17T10:08:13;16.80;99.90
19728;DHT22;10015;52.530;13.390;2022-09-17T10:10:56;16.80;99.90
19728;DHT22;10015;52.530;13.390;2022-09-17T10:13:22;16.90;99.90
19728;DHT22;10015;52.530;13.390;2022-09-17T10:15:49;16.90;99.90
19728;DHT22;10015;52.530;13.390;2022-09-17T10:18:17;17.20;99.90
19728;DHT22;10015;52.530;13.390;2022-09-17T10:20:57;17.30;99.90
19728;DHT22;10015;52.530;13.390;2022-09-17T10:23:26;17.30;99.90
19728;DHT22;10015;52.530;13.390;2022-09-17T10:25:54;17.30;99.90
19728;DHT22;10015;52.530;13.390;2022-09-17T10:28:27;17.60;99.90
19728;DHT22;10015;52.530;13.390;2022-09-17T10:30:59;17.70;99.90
19728;DHT22;10015;52.530;13.390;2022-09-17T10:33:30;17.90;99.90
19728;DHT22;10015;52.530;13.390;2022-09-17T10:36:02;17.80;99.90
19728;DHT22;10015;52.530;13.390;2022-09-17T10:38:37;17.60;99.90
19728;DHT22;10015;52.530;13.390;2022-09-17T10:41:21;17.30;99.90
19728;DHT22;10015;52.530;13.390;2022-09-17T10:43:48;17.00;99.90
19728;DHT22;10015;52.530;13.390;2022-09-17T10:46:20;16.80;99.90
19728;DHT22;10015;52.530;13.390;2022-09-17T10:49:44;16.70;99.90
19728;DHT22;10015;52.530;13.390;2022-09-17T10:51:44;16.50;99.90
19728;DHT22;10015;52.530;13.390;2022-09-17T10:54:38;16.50;99.90
19728;DHT22;10015;52.530;13.390;2022-09-17T10:57:06;16.50;99.90
19728;DHT22;10015;52.530;13.390;2022-09-17T11:00:07;16.50;99.90
19728;DHT22;10015;52.530;13.390;2022-09-17T11:22:30;17.80;99.90
19728;DHT22;10015;52.530;13.390;2022-09-17T11:25:35;17.70;99.90
19728;DHT22;10015;52.530;13.390;2022-09-17T11:28:29;17.90;99.90
19728;DHT22;10015;52.530;13.390;2022-09-17T11:36:16;18.10;99.90
19728;DHT22;10015;52.530;13.390;2022-09-17T11:38:48;17.80;99.90
19728;DHT22;10015;52.530;13.390;2022-09-17T11:44:07;17.40;99.90
19728;DHT22;10015;52.530;13.390;2022-09-17T11:52:00;16.80;99.90
19728;DHT22;10015;52.530;13.390;2022-09-17T11:57:16;16.80;99.90
19728;DHT22;10015;52.530;13.390;2022-09-17T11:59:51;17.00;99.90
19728;DHT22;10015;52.530;13.390;2022-09-17T12:11:05;17.30;99.90
19728;DHT22;10015;52.530;13.390;2022-09-17T12:13:42;17.50;99.90
19728;DHT22;10015;52.530;13.390;2022-09-17T12:16:28;17.60;99.90
19728;DHT22;10015;52.530;13.390;2022-09-17T12:24:34;16.90;99.90
19728;DHT22;10015;52.530;13.390;2022-09-17T12:32:58;17.00;99.90
19728;DHT22;10015;52.530;13.390;2022-09-17T12:51:54;18.40;99.90
19728;DHT22;10015;52.530;13.390;2022-09-17T12:59:53;18.40;99.90
19728;DHT22;10015;52.530;13.390;2022-09-17T13:02:30;18.10;99.90
19728;DHT22;10015;52.530;13.390;2022-09-17T13:15:52;17.60;99.90
19728;DHT22;10015;52.530;13.390;2022-09-17T13:23:43;18.20;99.90
19728;DHT22;10015;52.530;13.390;2022-09-17T13:26:11;18.30;99.90
19728;DHT22;10015;52.530;13.390;2022-09-17T13:28:44;18.30;99.90
19728;DHT22;10015;52.530;13.390;2022-09-17T13:31:11;18.40;99.90
19728;DHT22;10015;52.530;13.390;2022-09-17T13:33:57;18.40;99.90
19728;DHT22;10015;52.530;13.390;2022-09-17T13:36:47;18.40;99.90
19728;DHT22;10015;52.530;13.390;2022-09-17T13:39:39;18.40;99.90
19728;DHT22;10015;52.530;13.390;2022-09-17T13:44:36;18.20;99.90
19728;DHT22;10015;52.530;13.390;2022-09-17T13:47:27;18.10;99.90
19728;DHT22;10015;52.530;13.390;2022-09-17T13:50:24;18.00;99.90
19728;DHT22;10015;52.530;13.390;2022-09-17T13:52:51;18.10;99.90
19728;DHT22;10015;52.530;13.390;2022-09-17T14:00:55;18.20;99.90
19728;DHT22;10015;52.530;13.390;2022-09-17T14:05:54;18.00;99.90
19728;DHT22;10015;52.530;13.390;2022-09-17T14:08:45;18.00;99.90
19728;DHT22;10015;52.530;13.390;2022-09-17T14:19:30;17.60;99.90
19728;DHT22;10015;52.530;13.390;2022-09-17T14:22:00;17.60;99.90
19728;DHT22;10015;52.530;13.390;2022-09-17T14:32:38;18.90;99.90
19728;DHT22;10015;52.530;13.390;2022-09-17T14:35:21;19.10;99.90
19728;DHT22;10015;52.530;13.390;2022-09-17T14:37:52;19.10;99.90
19728;DHT22;10015;52.530;13.390;2022-09-17T14:40:20;19.10;99.90
19728;DHT22;10015;52.530;13.390;2022-09-17T14:42:51;19.00;99.90
19728;DHT22;10015;52.530;13.390;2022-09-17T14:45:25;18.80;99.90
19728;DHT22;10015;52.530;13.390;2022-09-17T14:50:43;18.60;99.90
19728;DHT22;10015;52.530;13.390;2022-09-17T14:53:19;18.40;99.90
19728;DHT22;10015;52.530;13.390;2022-09-17T14:55:47;18.30;99.90
19728;DHT22;10015;52.530;13.390;2022-09-17T14:58:36;18.20;99.90
19728;DHT22;10015;52.530;13.390;2022-09-17T15:01:05;18.00;99.90
19728;DHT22;10015;52.530;13.390;2022-09-17T15:03:31;17.70;99.90
19728;DHT22;10015;52.530;13.390;2022-09-17T15:05:57;17.70;99.90
19728;DHT22;10015;52.530;13.390;2022-09-17T15:08:26;17.70;99.90
19728;DHT22;10015;52.530;13.390;2022-09-17T15:11:01;17.70;99.90
19728;DHT22;10015;52.530;13.390;2022-09-17T15:13:30;17.30;99.90
19728;DHT22;10015;52.530;13.390;2022-09-17T15:18:33;17.00;99.90
19728;DHT22;10015;52.530;13.390;2022-09-17T15:21:00;17.00;99.90
19728;DHT22;10015;52.530;13.390;2022-09-17T15:23:30;17.10;99.90
19728;DHT22;10015;52.530;13.390;2022-09-17T15:25:59;17.20;99.90
19728;DHT22;10015;52.530;13.390;2022-09-17T15:28:38;17.40;99.90
19728;DHT22;10015;52.530;13.390;2022-09-17T15:31:08;17.40;99.90
19728;DHT22;10015;52.530;13.390;2022-09-17T15:33:38;17.20;99.90
19728;DHT22;10015;52.530;13.390;2022-09-17T15:36:23;17.20;99.90
19728;DHT22;10015;52.530;13.390;2022-09-17T15:38:49;17.10;99.90
19728;DHT22;10015;52.530;13.390;2022-09-17T15:44:19;16.80;99.90
19728;DHT22;10015;52.530;13.390;2022-09-17T15:46:45;16.90;99.90
19728;DHT22;10015;52.530;13.390;2022-09-17T15:49:33;16.70;99.90
19728;DHT22;10015;52.530;13.390;2022-09-17T15:52:34;16.80;99.90
19728;DHT22;10015;52.530;13.390;2022-09-17T15:55:00;16.80;99.90
19728;DHT22;10015;52.530;13.390;2022-09-17T15:57:28;16.50;99.90
19728;DHT22;10015;52.530;13.390;2022-09-17T16:00:04;16.40;99.90
19728;DHT22;10015;52.530;13.390;2022-09-17T16:02:31;16.40;99.90
19728;DHT22;10015;52.530;13.390;2022-09-17T16:07:39;16.20;99.90
19728;DHT22;10015;52.530;13.390;2022-09-17T16:10:11;16.20;99.90
19728;DHT22;10015;52.530;13.390;2022-09-17T16:12:40;16.30;99.90
19728;DHT22;10015;52.530;13.390;2022-09-17T16:15:06;16.30;99.90
19728;DHT22;10015;52.530;13.390;2022-09-17T16:20:24;16.10;99.90
19728;DHT22;10015;52.530;13.390;2022-09-17T16:22:51;15.90;99.90
19728;DHT22;10015;52.530;13.390;2022-09-17T16:25:22;15.70;99.90
19728;DHT22;10015;52.530;13.390;2022-09-17T16:27:53;15.50;99.90
19728;DHT22;10015;52.530;13.390;2022-09-17T16:30:22;15.40;99.90
19728;DHT22;10015;52.530;13.390;2022-09-17T16:32:49;15.40;99.90
19728;DHT22;10015;52.530;13.390;2022-09-17T16:35:17;15.40;99.90
19728;DHT22;10015;52.530;13.390;2022-09-17T16:37:52;15.20;99.90
19728;DHT22;10015;52.530;13.390;2022-09-17T16:40:19;15.00;99.90
19728;DHT22;10015;52.530;13.390;2022-09-17T16:42:46;15.00;99.90
19728;DHT22;10015;52.530;13.390;2022-09-17T16:45:13;14.90;99.90
19728;DHT22;10015;52.530;13.390;2022-09-17T16:47:40;14.80;99.90
19728;DHT22;10015;52.530;13.390;2022-09-17T16:50:12;14.80;99.90
19728;DHT22;10015;52.530;13.390;2022-09-17T16:52:39;14.90;99.90
19728;DHT22;10015;52.530;13.390;2022-09-17T16:55:05;14.80;99.90
19728;DHT22;10015;52.530;13.390;2022-09-17T16:57:32;14.80;99.90
19728;DHT22;10015;52.530;13.390;2022-09-17T16:59:58;14.80;99.90
19728;DHT22;10015;52.530;13.390;2022-09-17T17:02:24;14.90;99.90
19728;DHT22;10015;52.530;13.390;2022-09-17T17:04:50;14.90;99.90
19728;DHT22;10015;52.530;13.390;2022-09-17T17:07:16;15.00;99.90
19728;DHT22;10015;52.530;13.390;2022-09-17T17:09:42;14.90;99.90
19728;DHT22;10015;52.530;13.390;2022-09-17T17:12:09;14.90;99.90
19728;DHT22;10015;52.530;13.390;2022-09-17T17:14:35;14.90;99.90
19728;DHT22;10015;52.530;13.390;2022-09-17T17:17:01;14.80;99.90
19728;DHT22;10015;52.530;13.390;2022-09-17T17:19:27;14.80;99.90
19728;DHT22;10015;52.530;13.390;2022-09-17T17:21:55;14.90;99.90
19728;DHT22;10015;52.530;13.390;2022-09-17T17:24:21;14.90;99.90
19728;DHT22;10015;52.530;13.390;2022-09-17T17:26:47;14.90;99.90
19728;DHT22;10015;52.530;13.390;2022-09-17T17:29:14;15.00;99.90
19728;DHT22;10015;52.530;13.390;2022-09-17T17:31:41;14.90;99.90
19728;DHT22;10015;52.530;13.390;2022-09-17T17:34:07;14.90;99.90
19728;DHT22;10015;52.530;13.390;2022-09-17T17:36:33;14.90;99.90
19728;DHT22;10015;52.530;13.390;2022-09-17T17:39:00;14.70;99.90
19728;DHT22;10015;52.530;13.390;2022-09-17T17:41:26;14.70;99.90
19728;DHT22;10015;52.530;13.390;2022-09-17T17:43:54;14.80;99.90
19728;DHT22;10015;52.530;13.390;2022-09-17T17:46:20;14.80;99.90
19728;DHT22;10015;52.530;13.390;2022-09-17T17:48:48;14.90;99.90
19728;DHT22;10015;52.530;13.390;2022-09-17T17:51:17;14.80;99.90
19728;DHT22;10015;52.530;13.390;2022-09-17T17:53:44;14.90;99.90
19728;DHT22;10015;52.530;13.390;2022-09-17T17:56:11;14.80;99.90
19728;DHT22;10015;52.530;13.390;2022-09-17T17:58:38;14.80;99.90
19728;DHT22;10015;52.530;13.390;2022-09-17T18:01:15;14.70;99.90
19728;DHT22;10015;52.530;13.390;2022-09-17T18:03:42;14.60;99.90
19728;DHT22;10015;52.530;13.390;2022-09-17T18:06:08;14.70;99.90
19728;DHT22;10015;52.530;13.390;2022-09-17T18:08:35;14.60;99.90
19728;DHT22;10015;52.530;13.390;2022-09-17T18:11:03;14.60;99.90
19728;DHT22;10015;52.530;13.390;2022-09-17T18:13:30;14.60;99.90
19728;DHT22;10015;52.530;13.390;2022-09-17T18:15:59;14.70;99.90
19728;DHT22;10015;52.530;13.390;2022-09-17T18:18:32;14.60;99.90
19728;DHT22;10015;52.530;13.390;2022-09-17T18:21:00;14.60;99.90
19728;DHT22;10015;52.530;13.390;2022-09-17T18:23:27;14.50;99.90
19728;DHT22;10015;52.530;13.390;2022-09-17T18:25:55;14.50;99.90
19728;DHT22;10015;52.530;13.390;2022-09-17T18:28:22;14.60;99.90
19728;DHT22;10015;52.530;13.390;2022-09-17T18:30:49;14.50;99.90
19728;DHT22;10015;52.530;13.390;2022-09-17T18:33:25;14.50;99.90
19728;DHT22;10015;52.530;13.390;2022-09-17T18:35:53;14.60;99.90
19728;DHT22;10015;52.530;13.390;2022-09-17T18:38:22;14.80;99.90
19728;DHT22;10015;52.530;13.390;2022-09-17T18:40:49;14.90;99.90
19728;DHT22;10015;52.530;13.390;2022-09-17T18:43:15;14.90;99.90
19728;DHT22;10015;52.530;13.390;2022-09-17T18:45:41;14.80;99.90
19728;DHT22;10015;52.530;13.390;2022-09-17T18:48:08;14.70;99.90
19728;DHT22;10015;52.530;13.390;2022-09-17T18:50:34;14.70;99.90
19728;DHT22;10015;52.530;13.390;2022-09-17T18:53:00;14.70;99.90
19728;DHT22;10015;52.530;13.390;2022-09-17T18:55:28;14.60;99.90
19728;DHT22;10015;52.530;13.390;2022-09-17T18:57:54;14.60;99.90
19728;DHT22;10015;52.530;13.390;2022-09-17T19:00:22;14.50;99.90
19728;DHT22;10015;52.530;13.390;2022-09-17T19:02:49;14.40;99.90
19728;DHT22;10015;52.530;13.390;2022-09-17T19:05:16;14.40;99.90
19728;DHT22;10015;52.530;13.390;2022-09-17T19:07:46;14.50;99.90
19728;DHT22;10015;52.530;13.390;2022-09-17T19:10:13;14.40;99.90
19728;DHT22;10015;52.530;13.390;2022-09-17T19:12:40;14.40;99.90
19728;DHT22;10015;52.530;13.390;2022-09-17T19:15:07;14.40;99.90
19728;DHT22;10015;52.530;13.390;2022-09-17T19:17:35;14.40;99.90
19728;DHT22;10015;52.530;13.390;2022-09-17T19:20:01;14.40;99.90
19728;DHT22;10015;52.530;13.390;2022-09-17T19:22:28;14.40;99.90
19728;DHT22;10015;52.530;13.390;2022-09-17T19:24:54;14.30;99.90
19728;DHT22;10015;52.530;13.390;2022-09-17T19:27:20;14.30;99.90
19728;DHT22;10015;52.530;13.390;2022-09-17T19:29:46;14.20;99.90
19728;DHT22;10015;52.530;13.390;2022-09-17T19:32:12;14.30;99.90
19728;DHT22;10015;52.530;13.390;2022-09-17T19:34:38;14.20;99.90
19728;DHT22;10015;52.530;13.390;2022-09-17T19:37:05;14.20;99.90
19728;DHT22;10015;52.530;13.390;2022-09-17T19:39:32;14.10;99.90
19728;DHT22;10015;52.530;13.390;2022-09-17T19:49:08;14.20;99.90
19728;DHT22;10015;52.530;13.390;2022-09-17T19:55:59;14.20;99.90
19728;DHT22;10015;52.530;13.390;2022-09-17T20:03:18;14.20;99.90
19728;DHT22;10015;52.530;13.390;2022-09-17T20:10:43;14.20;99.90
19728;DHT22;10015;52.530;13.390;2022-09-17T20:14:21;14.30;99.90
19728;DHT22;10015;52.530;13.390;2022-09-17T20:17:16;14.30;99.90
19728;DHT22;10015;52.530;13.390;2022-09-17T20:19:59;14.40;99.90
19728;DHT22;10015;52.530;13.390;2022-09-17T20:22:32;14.30;99.90
19728;DHT22;10015;52.530;13.390;2022-09-17T20:26:25;14.30;99.90
19728;DHT22;10015;52.530;13.390;2022-09-17T20:32:35;14.30;99.90
19728;DHT22;10015;52.530;13.390;2022-09-17T20:35:07;14.20;99.90
19728;DHT22;10015;52.530;13.390;2022-09-17T20:37:50;14.20;99.90
19728;DHT22;10015;52.530;13.390;2022-09-17T20:40:43;14.20;99.90
19728;DHT22;10015;52.530;13.390;2022-09-17T20:43:46;14.30;99.90
19728;DHT22;10015;52.530;13.390;2022-09-17T20:46:46;14.00;99.90
19728;DHT22;10015;52.530;13.390;2022-09-17T20:52:15;13.80;99.90
19728;DHT22;10015;52.530;13.390;2022-09-17T20:55:16;13.90;99.90
19728;DHT22;10015;52.530;13.390;2022-09-17T20:57:57;14.00;99.90
19728;DHT22;10015;52.530;13.390;2022-09-17T21:00:47;14.00;99.90
19728;DHT22;10015;52.530;13.390;2022-09-17T21:03:15;14.10;99.90
19728;DHT22;10015;52.530;13.390;2022-09-17T21:05:48;14.00;99.90
19728;DHT22;10015;52.530;13.390;2022-09-17T21:08:14;14.00;99.90
19728;DHT22;10015;52.530;13.390;2022-09-17T21:10:49;13.90;99.90
19728;DHT22;10015;52.530;13.390;2022-09-17T21:13:23;13.90;99.90
19728;DHT22;10015;52.530;13.390;2022-09-17T21:16:00;14.00;99.90
19728;DHT22;10015;52.530;13.390;2022-09-17T21:27:38;13.90;99.90
19728;DHT22;10015;52.530;13.390;2022-09-17T21:30:10;13.90;99.90
19728;DHT22;10015;52.530;13.390;2022-09-17T21:32:41;14.00;99.90
19728;DHT22;10015;52.530;13.390;2022-09-17T21:35:08;14.10;99.90
19728;DHT22;10015;52.530;13.390;2022-09-17T21:37:46;14.00;99.90
19728;DHT22;10015;52.530;13.390;2022-09-17T21:40:53;14.00;99.90
19728;DHT22;10015;52.530;13.390;2022-09-17T21:53:48;13.90;99.90
19728;DHT22;10015;52.530;13.390;2022-09-17T22:00:16;14.00;99.90
19728;DHT22;10015;52.530;13.390;2022-09-17T22:02:43;14.00;99.90
19728;DHT22;10015;52.530;13.390;2022-09-17T22:05:09;14.10;99.90
19728;DHT22;10015;52.530;13.390;2022-09-17T22:07:35;14.10;99.90
19728;DHT22;10015;52.530;13.390;2022-09-17T22:10:01;14.10;99.90
19728;DHT22;10015;52.530;13.390;2022-09-17T22:12:27;14.10;99.90
19728;DHT22;10015;52.530;13.390;2022-09-17T22:14:53;14.10;99.90
19728;DHT22;10015;52.530;13.390;2022-09-17T22:17:19;14.00;99.90
19728;DHT22;10015;52.530;13.390;2022-09-17T22:19:46;14.00;99.90
19728;DHT22;10015;52.530;13.390;2022-09-17T22:22:12;14.00;99.90
19728;DHT22;10015;52.530;13.390;2022-09-17T22:24:38;14.00;99.90
19728;DHT22;10015;52.530;13.390;2022-09-17T22:27:08;14.00;99.90
19728;DHT22;10015;52.530;13.390;2022-09-17T22:29:34;14.00;99.90
19728;DHT22;10015;52.530;13.390;2022-09-17T22:32:00;14.00;99.90
19728;DHT22;10015;52.530;13.390;2022-09-17T22:34:27;14.00;99.90
19728;DHT22;10015;52.530;13.390;2022-09-17T22:36:55;14.10;99.90
19728;DHT22;10015;52.530;13.390;2022-09-17T22:39:21;14.00;99.90
19728;DHT22;10015;52.530;13.390;2022-09-17T22:41:47;13.90;99.90
19728;DHT22;10015;52.530;13.390;2022-09-17T22:44:15;13.90;99.90
19728;DHT22;10015;52.530;13.390;2022-09-17T22:46:43;14.00;99.90
19728;DHT22;10015;52.530;13.390;2022-09-17T22:49:11;14.00;99.90
19728;DHT22;10015;52.530;13.390;2022-09-17T22:51:38;14.10;99.90
19728;DHT22;10015;52.530;13.390;2022-09-17T22:54:05;14.10;99.90
19728;DHT22;10015;52.530;13.390;2022-09-17T22:56:33;14.10;99.90
19728;DHT22;10015;52.530;13.390;2022-09-17T22:58:59;14.10;99.90
